createdAt,value
2023-08-19T00:00:25.619Z,97597.09
2023-08-19T00:02:52.316Z,97598.66
2023-08-19T00:05:19.186Z,97593.28
2023-08-19T00:07:45.873Z,97600.84
2023-08-19T00:10:12.531Z,97602.75
2023-08-19T00:12:39.168Z,97600.88
2023-08-19T00:15:05.845Z,97596.09
2023-08-19T00:17:32.835Z,97600.94
2023-08-19T00:19:59.684Z,97598.75
2023-08-19T00:22:26.515Z,97598.25
2023-08-19T00:24:53.323Z,97602.53
2023-08-19T00:27:19.959Z,97600.34
2023-08-19T00:29:46.634Z,97592.00
2023-08-19T00:32:13.261Z,97589.56
2023-08-19T00:34:39.881Z,97585.78
2023-08-19T00:37:06.577Z,97587.97
2023-08-19T00:39:33.294Z,97587.50
2023-08-19T00:42:00.094Z,97589.63
2023-08-19T00:44:27.176Z,97585.84
2023-08-19T00:46:54.871Z,97587.16
2023-08-19T00:49:21.532Z,97582.03
2023-08-19T00:51:48.236Z,97587.34
2023-08-19T00:54:14.880Z,97582.13
2023-08-19T00:56:41.637Z,97584.53
2023-08-19T00:59:08.318Z,97580.56
2023-08-19T01:01:34.979Z,97584.63
2023-08-19T01:04:01.745Z,97587.66
2023-08-19T01:06:28.558Z,97590.81
2023-08-19T01:08:55.206Z,97583.00
2023-08-19T01:11:21.861Z,97582.19
2023-08-19T01:13:48.584Z,97585.19
2023-08-19T01:16:15.278Z,97572.22
2023-08-19T01:18:42.103Z,97574.41
2023-08-19T01:21:08.820Z,97590.03
2023-08-19T01:23:35.471Z,97580.88
2023-08-19T01:26:02.282Z,97573.22
2023-08-19T01:28:28.946Z,97578.56
2023-08-19T01:30:55.577Z,97585.81
2023-08-19T01:33:22.195Z,97574.22
2023-08-19T01:35:48.887Z,97571.63
2023-08-19T01:38:15.510Z,97575.91
2023-08-19T01:40:42.157Z,97574.88
2023-08-19T01:43:08.826Z,97571.16
2023-08-19T01:45:35.655Z,97572.78
2023-08-19T01:48:02.368Z,97563.16
2023-08-19T01:50:29.079Z,97565.03
2023-08-19T01:52:55.905Z,97564.69
2023-08-19T01:55:22.755Z,97568.94
2023-08-19T01:57:49.519Z,97576.63
2023-08-19T02:00:16.134Z,97581.44
2023-08-19T02:02:42.802Z,97577.22
2023-08-19T02:05:09.574Z,97577.19
2023-08-19T02:07:36.221Z,97572.09
2023-08-19T02:10:02.844Z,97578.88
2023-08-19T02:12:29.530Z,97580.53
2023-08-19T02:14:56.315Z,97587.44
2023-08-19T02:17:23.112Z,97593.81
2023-08-19T02:19:49.828Z,97590.03
2023-08-19T02:22:16.447Z,97590.25
2023-08-19T02:24:43.041Z,97592.13
2023-08-19T02:27:09.720Z,97587.47
2023-08-19T02:29:36.341Z,97587.97
2023-08-19T02:32:02.971Z,97583.50
2023-08-19T02:34:29.676Z,97590.25
2023-08-19T02:36:56.303Z,97594.84
2023-08-19T02:39:22.908Z,97594.22
2023-08-19T02:41:49.597Z,97596.66
2023-08-19T02:44:16.235Z,97595.69
2023-08-19T02:46:43.099Z,97594.53
2023-08-19T02:49:09.828Z,97587.25
2023-08-19T02:51:36.432Z,97589.88
2023-08-19T02:54:03.256Z,97580.44
2023-08-19T02:56:29.942Z,97588.94
2023-08-19T02:58:56.553Z,97591.06
2023-08-19T03:01:23.182Z,97595.66
2023-08-19T03:03:49.851Z,97592.13
2023-08-19T03:06:16.451Z,97586.28
2023-08-19T03:08:43.097Z,97597.84
2023-08-19T03:11:09.769Z,97596.72
2023-08-19T03:13:36.384Z,97598.13
2023-08-19T03:16:03.043Z,97598.44
2023-08-19T03:18:29.723Z,97593.69
2023-08-19T03:20:56.545Z,97591.28
2023-08-19T03:23:23.184Z,97596.69
2023-08-19T03:25:49.904Z,97605.78
2023-08-19T03:28:16.570Z,97597.78
2023-08-19T03:30:43.214Z,97593.28
2023-08-19T03:33:09.938Z,97596.88
2023-08-19T03:35:36.795Z,97593.38
2023-08-19T03:38:03.397Z,97605.44
2023-08-19T03:40:30.096Z,97603.88
2023-08-19T03:42:56.825Z,97598.25
2023-08-19T03:45:23.429Z,97600.41
2023-08-19T03:47:50.158Z,97594.88
2023-08-19T03:50:16.863Z,97597.41
2023-08-19T03:52:43.508Z,97600.63
2023-08-19T03:55:12.173Z,97595.03
2023-08-19T03:57:38.972Z,97596.19
2023-08-19T04:00:05.596Z,97591.97
2023-08-19T04:02:32.299Z,97588.09
2023-08-19T04:04:58.975Z,97584.28
2023-08-19T04:07:25.601Z,97585.66
2023-08-19T04:09:52.292Z,97578.78
2023-08-19T04:12:18.915Z,97587.03
2023-08-19T04:14:45.555Z,97581.09
2023-08-19T04:17:12.232Z,97579.34
2023-08-19T04:19:38.895Z,97584.47
2023-08-19T04:22:05.557Z,97590.25
2023-08-19T04:24:32.232Z,97581.47
2023-08-19T04:26:58.829Z,97583.16
2023-08-19T04:29:25.634Z,97578.31
2023-08-19T04:31:52.342Z,97577.28
2023-08-19T04:34:19.161Z,97570.56
2023-08-19T04:36:45.812Z,97574.38
2023-08-19T04:39:12.497Z,97579.16
2023-08-19T04:41:39.276Z,97579.63
2023-08-19T04:44:05.912Z,97574.41
2023-08-19T04:46:32.761Z,97580.91
2023-08-19T04:48:59.463Z,97572.53
2023-08-19T04:51:26.081Z,97585.41
2023-08-19T04:53:52.755Z,97592.72
2023-08-19T04:56:19.363Z,97584.41
2023-08-19T04:58:45.968Z,97583.63
2023-08-19T05:01:12.687Z,97584.91
2023-08-19T05:03:39.378Z,97590.59
2023-08-19T05:06:06.036Z,97593.00
2023-08-19T05:08:32.700Z,97593.69
2023-08-19T05:10:59.558Z,97590.72
2023-08-19T05:13:26.200Z,97595.84
2023-08-19T05:15:52.912Z,97594.09
2023-08-19T05:18:19.554Z,97588.25
2023-08-19T05:20:46.225Z,97603.81
2023-08-19T05:23:12.916Z,97605.75
2023-08-19T05:25:39.708Z,97606.81
2023-08-19T05:28:06.324Z,97606.81
2023-08-19T05:30:33.183Z,97610.63
2023-08-19T05:32:59.993Z,97605.84
2023-08-19T05:35:26.779Z,97610.91
2023-08-19T05:37:53.520Z,97615.50
2023-08-19T05:40:20.165Z,97614.75
2023-08-19T05:42:46.806Z,97614.75
2023-08-19T05:45:13.488Z,97626.84
2023-08-19T05:47:40.346Z,97623.88
2023-08-19T05:50:06.991Z,97632.47
2023-08-19T05:52:33.880Z,97635.69
2023-08-19T05:55:02.576Z,97636.78
2023-08-19T05:59:56.491Z,97628.75
2023-08-19T06:02:23.123Z,97634.91
2023-08-19T06:04:49.753Z,97642.16
2023-08-19T06:07:16.620Z,97641.03
2023-08-19T06:09:43.341Z,97635.59
2023-08-19T06:12:09.954Z,97638.03
2023-08-19T06:14:36.783Z,97648.78
2023-08-19T06:17:03.595Z,97656.88
2023-08-19T06:19:30.241Z,97655.25
2023-08-19T06:21:56.913Z,97665.50
2023-08-19T06:24:23.527Z,97668.72
2023-08-19T06:26:50.186Z,97662.16
2023-08-19T06:29:16.881Z,97667.50
2023-08-19T06:31:43.674Z,97663.00
2023-08-19T06:34:10.300Z,97669.69
2023-08-19T06:36:36.971Z,97664.78
2023-08-19T06:39:03.772Z,97672.22
2023-08-19T06:41:30.415Z,97670.59
2023-08-19T06:43:57.113Z,97666.16
2023-08-19T06:46:23.930Z,97664.69
2023-08-19T06:48:50.598Z,97665.53
2023-08-19T06:51:17.276Z,97671.06
2023-08-19T06:53:43.899Z,97672.38
2023-08-19T06:56:10.716Z,97672.56
2023-08-19T06:58:37.589Z,97672.81
2023-08-19T07:01:04.352Z,97684.22
2023-08-19T07:03:31.308Z,97679.41
2023-08-19T07:05:58.225Z,97679.22
2023-08-19T07:08:24.926Z,97673.94
2023-08-19T07:10:51.621Z,97679.72
2023-08-19T07:13:18.287Z,97674.84
2023-08-19T07:15:45.044Z,97674.22
2023-08-19T07:18:11.680Z,97672.13
2023-08-19T07:20:38.392Z,97673.41
2023-08-19T07:23:05.226Z,97674.66
2023-08-19T07:25:32.038Z,97680.13
2023-08-19T07:27:58.728Z,97681.53
2023-08-19T07:30:25.462Z,97686.16
2023-08-19T07:32:52.241Z,97678.59
2023-08-19T07:35:19.169Z,97677.63
2023-08-19T07:37:46.030Z,97685.38
2023-08-19T07:40:12.650Z,97678.94
2023-08-19T07:42:39.501Z,97682.09
2023-08-19T07:45:06.303Z,97690.13
2023-08-19T07:47:33.132Z,97687.31
2023-08-19T07:50:00.040Z,97688.00
2023-08-19T07:52:26.696Z,97699.28
2023-08-19T07:54:53.547Z,97704.56
2023-08-19T07:57:20.264Z,97701.78
2023-08-19T07:59:46.952Z,97705.47
2023-08-19T08:02:13.566Z,97696.97
2023-08-19T08:04:40.273Z,97707.94
2023-08-19T08:07:06.957Z,97711.22
2023-08-19T08:09:33.770Z,97705.88
2023-08-19T08:12:00.558Z,97718.59
2023-08-19T08:14:27.386Z,97714.00
2023-08-19T08:16:54.047Z,97721.78
2023-08-19T08:19:20.909Z,97718.69
2023-08-19T08:21:47.571Z,97716.91
2023-08-19T08:24:14.202Z,97717.09
2023-08-19T08:26:41.106Z,97707.88
2023-08-19T08:29:07.728Z,97718.50
2023-08-19T08:31:34.468Z,97705.19
2023-08-19T08:34:01.175Z,97708.53
2023-08-19T08:36:28.101Z,97709.91
2023-08-19T08:38:54.747Z,97710.81
2023-08-19T08:41:21.435Z,97712.91
2023-08-19T08:43:48.208Z,97700.50
2023-08-19T08:46:14.888Z,97698.16
2023-08-19T08:48:41.586Z,97697.19
2023-08-19T08:51:08.394Z,97703.66
2023-08-19T08:53:35.037Z,97703.97
2023-08-19T08:56:01.918Z,97701.28
2023-08-19T08:58:28.551Z,97706.19
2023-08-19T09:00:55.366Z,97699.03
2023-08-19T09:03:22.043Z,97701.97
2023-08-19T09:05:48.856Z,97702.25
2023-08-19T09:08:15.729Z,97705.47
2023-08-19T09:10:42.653Z,97700.06
2023-08-19T09:13:09.303Z,97705.28
2023-08-19T09:15:35.972Z,97705.47
2023-08-19T09:18:02.691Z,97703.44
2023-08-19T09:20:29.331Z,97710.47
2023-08-19T09:22:56.032Z,97708.00
2023-08-19T09:25:22.718Z,97698.63
2023-08-19T09:27:49.412Z,97707.44
2023-08-19T09:30:16.206Z,97699.25
2023-08-19T09:32:43.084Z,97699.69
2023-08-19T09:35:09.766Z,97702.31
2023-08-19T09:37:36.463Z,97702.72
2023-08-19T09:40:03.156Z,97694.22
2023-08-19T09:42:29.900Z,97699.31
2023-08-19T09:44:56.671Z,97697.84
2023-08-19T09:47:23.338Z,97687.41
2023-08-19T09:49:49.961Z,97696.75
2023-08-19T09:52:16.633Z,97686.34
2023-08-19T09:54:43.313Z,97690.47
2023-08-19T09:57:09.931Z,97691.81
2023-08-19T09:59:36.566Z,97692.22
2023-08-19T10:02:03.295Z,97688.72
2023-08-19T10:04:30.161Z,97688.22
2023-08-19T10:06:57.077Z,97691.09
2023-08-19T10:09:23.750Z,97694.03
2023-08-19T10:11:50.627Z,97686.16
2023-08-19T10:14:17.265Z,97695.66
2023-08-19T10:16:44.240Z,97686.81
2023-08-19T10:19:10.871Z,97693.41
2023-08-19T10:21:37.695Z,97698.47
2023-08-19T10:24:04.399Z,97691.19
2023-08-19T10:26:31.201Z,97696.31
2023-08-19T10:28:57.816Z,97696.66
2023-08-19T10:31:24.538Z,97685.31
2023-08-19T10:33:51.268Z,97687.84
2023-08-19T10:36:17.896Z,97683.63
2023-08-19T10:38:44.640Z,97685.09
2023-08-19T10:41:11.504Z,97687.81
2023-08-19T10:43:38.365Z,97682.81
2023-08-19T10:46:05.336Z,97677.44
2023-08-19T10:48:32.201Z,97676.16
2023-08-19T10:50:58.853Z,97678.34
2023-08-19T10:53:25.545Z,97675.91
2023-08-19T10:55:52.195Z,97672.28
2023-08-19T10:58:18.819Z,97675.50
2023-08-19T11:00:45.490Z,97675.06
2023-08-19T11:03:12.170Z,97666.47
2023-08-19T11:05:39.000Z,97663.56
2023-08-19T11:08:05.748Z,97666.88
2023-08-19T11:10:32.428Z,97665.81
2023-08-19T11:12:59.244Z,97668.94
2023-08-19T11:15:25.922Z,97668.16
2023-08-19T11:17:52.656Z,97672.31
2023-08-19T11:20:19.486Z,97672.69
2023-08-19T11:22:46.165Z,97662.81
2023-08-19T11:25:12.816Z,97665.81
2023-08-19T11:27:39.612Z,97663.06
2023-08-19T11:30:06.298Z,97670.25
2023-08-19T11:32:33.220Z,97666.22
2023-08-19T11:35:00.063Z,97648.41
2023-08-19T11:37:26.801Z,97657.91
2023-08-19T11:39:53.449Z,97655.75
2023-08-19T11:42:20.097Z,97661.88
2023-08-19T11:44:46.786Z,97655.84
2023-08-19T11:47:13.600Z,97662.50
2023-08-19T11:49:40.221Z,97658.97
2023-08-19T11:52:06.918Z,97657.47
2023-08-19T11:54:33.711Z,97655.25
2023-08-19T11:57:00.673Z,97661.00
2023-08-19T11:59:27.596Z,97656.75
2023-08-19T12:01:54.388Z,97653.16
2023-08-19T12:04:21.008Z,97656.78
2023-08-19T12:06:47.712Z,97654.78
2023-08-19T12:09:14.347Z,97654.00
2023-08-19T12:11:40.991Z,97645.63
2023-08-19T12:14:07.751Z,97654.06
2023-08-19T12:16:34.405Z,97644.22
2023-08-19T12:19:01.079Z,97652.78
2023-08-19T12:21:27.946Z,97649.25
2023-08-19T12:23:54.582Z,97646.84
2023-08-19T12:26:21.214Z,97641.13
2023-08-19T12:28:48.085Z,97638.50
2023-08-19T12:31:14.848Z,97645.97
2023-08-19T12:33:41.548Z,97644.41
2023-08-19T12:36:18.598Z,97648.06
2023-08-19T12:38:46.894Z,97648.03
2023-08-19T12:41:13.858Z,97651.78
2023-08-19T12:43:40.650Z,97631.13
2023-08-19T12:46:07.367Z,97638.16
2023-08-19T12:48:34.136Z,97638.00
2023-08-19T12:51:00.797Z,97642.31
2023-08-19T12:53:27.449Z,97641.59
2023-08-19T12:55:54.153Z,97645.31
2023-08-19T12:58:20.800Z,97637.63
2023-08-19T13:00:47.490Z,97640.50
2023-08-19T13:03:14.235Z,97637.22
2023-08-19T13:05:41.083Z,97631.97
2023-08-19T13:08:07.892Z,97633.66
2023-08-19T13:10:35.964Z,97635.91
2023-08-19T13:13:03.001Z,97640.91
2023-08-19T13:15:29.659Z,97643.16
2023-08-19T13:17:56.421Z,97643.66
2023-08-19T13:20:23.148Z,97636.16
2023-08-19T13:22:49.861Z,97640.41
2023-08-19T13:25:16.534Z,97634.41
2023-08-19T13:27:43.224Z,97638.97
2023-08-19T13:30:09.850Z,97634.81
2023-08-19T13:32:37.014Z,97633.00
2023-08-19T13:35:04.239Z,97635.28
2023-08-19T13:37:30.850Z,97634.03
2023-08-19T13:39:57.548Z,97630.94
2023-08-19T13:42:24.159Z,97631.09
2023-08-19T13:44:50.777Z,97623.69
2023-08-19T13:47:17.449Z,97625.53
2023-08-19T13:49:44.294Z,97623.28
2023-08-19T13:52:10.898Z,97621.88
2023-08-19T13:54:37.574Z,97622.13
2023-08-19T13:57:04.205Z,97620.00
2023-08-19T13:59:31.001Z,97613.63
2023-08-19T14:01:57.676Z,97609.59
2023-08-19T14:04:24.514Z,97603.84
2023-08-19T14:06:51.151Z,97608.47
2023-08-19T14:09:17.837Z,97600.94
2023-08-19T14:11:44.665Z,97603.31
2023-08-19T14:14:11.304Z,97601.16
2023-08-19T14:16:38.089Z,97598.19
2023-08-19T14:19:04.749Z,97601.84
2023-08-19T14:21:31.386Z,97607.91
2023-08-19T14:23:58.130Z,97603.78
2023-08-19T14:26:24.781Z,97603.00
2023-08-19T14:28:51.446Z,97604.50
2023-08-19T14:31:18.153Z,97601.63
2023-08-19T14:33:44.853Z,97601.66
2023-08-19T14:36:11.490Z,97588.91
2023-08-19T14:38:38.160Z,97589.22
2023-08-19T14:41:04.791Z,97588.38
2023-08-19T14:43:31.479Z,97593.34
2023-08-19T14:45:58.304Z,97590.69
2023-08-19T14:48:25.133Z,97581.28
2023-08-19T14:50:51.964Z,97582.56
2023-08-19T14:53:18.678Z,97589.06
2023-08-19T14:55:45.494Z,97583.22
2023-08-19T14:58:12.119Z,97590.53
2023-08-19T15:00:38.814Z,97580.88
2023-08-19T15:03:06.349Z,97589.72
2023-08-19T15:05:34.508Z,97580.94
2023-08-19T15:08:01.358Z,97582.31
2023-08-19T15:10:27.996Z,97578.91
2023-08-19T15:12:54.616Z,97583.03
2023-08-19T15:15:21.361Z,97582.22
2023-08-19T15:17:48.138Z,97584.06
2023-08-19T15:20:14.834Z,97582.22
2023-08-19T15:22:41.508Z,97585.66
2023-08-19T15:25:08.338Z,97584.16
2023-08-19T15:27:35.148Z,97578.13
2023-08-19T15:30:02.259Z,97588.88
2023-08-19T15:32:29.124Z,97577.34
2023-08-19T15:34:55.979Z,97581.91
2023-08-19T15:37:22.679Z,97575.34
2023-08-19T15:39:49.320Z,97581.66
2023-08-19T15:42:16.122Z,97575.34
2023-08-19T15:44:42.801Z,97574.16
2023-08-19T15:47:09.419Z,97576.56
2023-08-19T15:49:36.050Z,97581.66
2023-08-19T15:52:02.962Z,97576.25
2023-08-19T15:54:29.609Z,97572.31
2023-08-19T15:56:56.416Z,97580.66
2023-08-19T15:59:23.094Z,97584.28
2023-08-19T16:01:49.715Z,97587.13
2023-08-19T16:04:16.577Z,97581.09
2023-08-19T16:06:43.246Z,97574.69
2023-08-19T16:09:09.889Z,97577.50
2023-08-19T16:11:36.542Z,97573.97
2023-08-19T16:14:03.232Z,97589.75
2023-08-19T16:16:29.882Z,97586.63
2023-08-19T16:18:56.517Z,97585.66
2023-08-19T16:21:23.178Z,97581.28
2023-08-19T16:23:49.784Z,97584.72
2023-08-19T16:26:16.383Z,97583.59
2023-08-19T16:28:43.139Z,97589.06
2023-08-19T16:31:09.813Z,97587.03
2023-08-19T16:33:36.894Z,97594.06
2023-08-19T16:36:03.669Z,97594.34
2023-08-19T16:38:30.507Z,97592.81
2023-08-19T16:40:57.155Z,97594.56
2023-08-19T16:43:23.913Z,97596.28
2023-08-19T16:45:50.521Z,97598.63
2023-08-19T16:48:17.171Z,97593.00
2023-08-19T16:50:43.850Z,97599.47
2023-08-19T16:53:10.660Z,97602.81
2023-08-19T16:55:37.353Z,97598.97
2023-08-19T16:58:04.030Z,97607.09
2023-08-19T17:00:30.661Z,97609.34
2023-08-19T17:02:57.348Z,97611.06
2023-08-19T17:05:24.031Z,97614.78
2023-08-19T17:07:50.666Z,97618.34
2023-08-19T17:10:18.454Z,97622.31
2023-08-19T17:12:46.092Z,97623.94
2023-08-19T17:15:12.740Z,97619.78
2023-08-19T17:17:39.364Z,97618.78
2023-08-19T17:20:06.074Z,97623.44
2023-08-19T17:22:32.712Z,97622.66
2023-08-19T17:24:59.539Z,97632.59
2023-08-19T17:27:26.225Z,97622.66
2023-08-19T17:29:52.850Z,97622.81
2023-08-19T17:32:19.504Z,97634.16
2023-08-19T17:34:46.167Z,97645.19
2023-08-19T17:37:12.783Z,97640.41
2023-08-19T17:39:39.426Z,97644.69
2023-08-19T17:42:06.113Z,97644.19
2023-08-19T17:44:32.914Z,97656.50
2023-08-19T17:46:59.535Z,97657.75
2023-08-19T17:49:26.240Z,97659.97
2023-08-19T17:51:52.884Z,97656.41
2023-08-19T17:54:19.560Z,97656.53
2023-08-19T17:56:46.302Z,97653.75
2023-08-19T17:59:13.108Z,97662.31
2023-08-19T18:01:39.921Z,97669.94
2023-08-19T18:04:06.602Z,97677.63
2023-08-19T18:06:33.254Z,97677.63
2023-08-19T18:09:00.036Z,97681.50
2023-08-19T18:11:26.735Z,97681.06
2023-08-19T18:13:53.363Z,97689.31
2023-08-19T18:16:20.062Z,97682.47
2023-08-19T18:18:46.832Z,97685.38
2023-08-19T18:21:13.474Z,97696.19
2023-08-19T18:23:40.114Z,97699.53
2023-08-19T18:26:06.762Z,97701.59
2023-08-19T18:28:33.391Z,97705.81
2023-08-19T18:31:00.050Z,97716.44
2023-08-19T18:33:26.742Z,97715.81
2023-08-19T18:35:53.397Z,97726.66
2023-08-19T18:38:20.019Z,97735.50
2023-08-19T18:40:46.705Z,97722.88
2023-08-19T18:43:13.348Z,97733.41
2023-08-19T18:45:40.052Z,97736.72
2023-08-19T18:48:07.296Z,97740.13
2023-08-19T18:50:34.174Z,97747.13
2023-08-19T18:53:00.814Z,97747.66
2023-08-19T18:55:27.500Z,97748.44
2023-08-19T18:57:54.195Z,97750.25
2023-08-19T19:00:20.819Z,97756.91
2023-08-19T19:02:47.543Z,97761.31
2023-08-19T19:05:14.380Z,97767.66
2023-08-19T19:07:41.029Z,97774.19
2023-08-19T19:10:07.693Z,97772.25
2023-08-19T19:12:34.525Z,97785.28
2023-08-19T19:15:01.145Z,97781.78
2023-08-19T19:17:27.833Z,97784.16
2023-08-19T19:19:54.492Z,97781.72
2023-08-19T19:22:21.127Z,97786.97
2023-08-19T19:24:47.784Z,97787.25
2023-08-19T19:27:14.392Z,97789.28
2023-08-19T19:29:41.012Z,97786.56
2023-08-19T19:32:07.685Z,97796.09
2023-08-19T19:34:34.293Z,97789.97
2023-08-19T19:37:00.933Z,97802.22
2023-08-19T19:39:27.610Z,97798.25
2023-08-19T19:41:54.233Z,97802.66
2023-08-19T19:44:20.884Z,97809.56
2023-08-19T19:46:47.732Z,97809.16
2023-08-19T19:49:14.359Z,97809.00
2023-08-19T19:51:41.006Z,97810.91
2023-08-19T19:54:07.753Z,97810.91
2023-08-19T19:56:34.366Z,97817.78
2023-08-19T19:59:00.988Z,97816.97
2023-08-19T20:01:27.677Z,97815.06
2023-08-19T20:03:54.496Z,97819.59
2023-08-19T20:06:21.228Z,97825.97
2023-08-19T20:08:47.936Z,97820.69
2023-08-19T20:11:14.720Z,97822.03
2023-08-19T20:13:41.338Z,97833.22
2023-08-19T20:16:08.199Z,97828.38
2023-08-19T20:18:34.825Z,97827.50
2023-08-19T20:21:01.547Z,97832.56
2023-08-19T20:23:28.546Z,97821.66
2023-08-19T20:25:55.165Z,97824.72
2023-08-19T20:28:21.883Z,97830.13
2023-08-19T20:30:48.564Z,97842.56
2023-08-19T20:33:15.201Z,97833.84
2023-08-19T20:35:41.814Z,97831.47
2023-08-19T20:38:08.461Z,97833.56
2023-08-19T20:40:35.132Z,97832.84
2023-08-19T20:43:01.742Z,97836.50
2023-08-19T20:45:28.415Z,97837.56
2023-08-19T20:47:55.159Z,97843.28
2023-08-19T20:50:21.804Z,97849.78
2023-08-19T20:52:48.570Z,97848.84
2023-08-19T20:55:15.231Z,97849.59
2023-08-19T20:57:41.838Z,97847.19
2023-08-19T21:00:08.536Z,97845.06
2023-08-19T21:02:35.240Z,97844.53
2023-08-19T21:05:01.928Z,97852.72
2023-08-19T21:07:28.610Z,97852.22
2023-08-19T21:09:55.444Z,97853.06
2023-08-19T21:12:22.092Z,97855.47
2023-08-19T21:14:48.742Z,97854.31
2023-08-19T21:17:15.376Z,97853.09
2023-08-19T21:19:42.016Z,97851.00
2023-08-19T21:22:08.711Z,97852.59
2023-08-19T21:24:35.320Z,97852.09
2023-08-19T21:27:01.948Z,97848.34
2023-08-19T21:29:28.611Z,97849.97
2023-08-19T21:31:55.230Z,97855.38
2023-08-19T21:34:21.874Z,97845.94
2023-08-19T21:36:48.541Z,97846.53
2023-08-19T21:39:15.163Z,97848.28
2023-08-19T21:41:41.812Z,97845.88
2023-08-19T21:44:08.490Z,97845.88
2023-08-19T21:46:35.122Z,97850.47
2023-08-19T21:49:01.747Z,97847.19
2023-08-19T21:51:28.422Z,97852.47
2023-08-19T21:53:55.035Z,97843.88
2023-08-19T21:56:21.679Z,97840.66
2023-08-19T21:58:48.363Z,97839.66
2023-08-19T22:01:15.048Z,97842.34
2023-08-19T22:03:41.782Z,97845.13
2023-08-19T22:06:08.588Z,97850.75
2023-08-19T22:08:35.215Z,97856.31
2023-08-19T22:11:01.867Z,97852.00
2023-08-19T22:13:28.537Z,97850.44
2023-08-19T22:15:55.155Z,97856.19
2023-08-19T22:18:21.796Z,97846.19
2023-08-19T22:20:51.311Z,97850.50
2023-08-19T22:23:18.347Z,97848.16
2023-08-19T22:25:44.961Z,97855.94
2023-08-19T22:28:11.648Z,97851.13
2023-08-19T22:30:38.501Z,97844.72
2023-08-19T22:33:05.217Z,97853.97
2023-08-19T22:35:32.045Z,97850.75
2023-08-19T22:37:58.753Z,97849.66
2023-08-19T22:40:25.387Z,97850.84
2023-08-19T22:42:52.066Z,97853.31
2023-08-19T22:45:18.692Z,97847.09
2023-08-19T22:47:45.788Z,97844.09
2023-08-19T22:50:12.710Z,97844.19
2023-08-19T22:52:39.348Z,97846.59
2023-08-19T22:55:06.141Z,97843.91
2023-08-19T22:57:33.218Z,97851.69
2023-08-19T23:00:00.082Z,97838.06
2023-08-19T23:02:26.850Z,97849.41
2023-08-19T23:04:53.621Z,97845.28
2023-08-19T23:07:20.249Z,97848.22
2023-08-19T23:09:46.890Z,97834.72
2023-08-19T23:12:13.584Z,97834.72
2023-08-19T23:14:40.221Z,97848.28
2023-08-19T23:17:06.826Z,97847.75
2023-08-19T23:19:33.485Z,97830.22
2023-08-19T23:22:00.104Z,97832.66
2023-08-19T23:24:26.732Z,97829.75
2023-08-19T23:26:53.407Z,97834.28
2023-08-19T23:29:20.023Z,97831.66
2023-08-19T23:31:46.825Z,97825.84
2023-08-19T23:34:13.548Z,97829.63
2023-08-19T23:36:40.194Z,97826.41
2023-08-19T23:39:06.815Z,97814.78
2023-08-19T23:41:33.583Z,97818.28
2023-08-19T23:44:00.190Z,97829.09
2023-08-19T23:46:27.021Z,97827.75
2023-08-19T23:48:53.732Z,97832.84
2023-08-19T23:51:20.369Z,97822.03
2023-08-19T23:53:46.997Z,97821.03
2023-08-19T23:56:13.887Z,97830.19
2023-08-19T23:58:40.515Z,97833.16
